Time;durP1;ratioP1;P1;durP2;ratioP2;P2;SDS_P1;SDS_P2;PMS_P1;PMS_P2;Temp;Humidity;BMP_temperature;BMP_pressure;BME280_temperature;BME280_humidity;BME280_pressure;Samples;Min_cycle;Max_cycle;Signal;HPM_P1;HPM_P2
2021/08/15 00:02:22;;;;;;;27.03;25.23;;;;;;;;;;5015022;28;20833;-68
2021/08/15 00:04:49;;;;;;;27.03;25.33;;;;;;;;;;5014023;28;20485;-68
2021/08/15 00:07:19;;;;;;;27.63;25.83;;;;;;;;;;5015243;28;20449;-68
2021/08/15 00:09:46;;;;;;;25.73;24.13;;;;;;;;;;5015271;28;20536;-67
2021/08/15 00:12:13;;;;;;;27.50;25.70;;;;;;;;;;5015159;28;20453;-67
2021/08/15 00:14:40;;;;;;;26.10;24.53;;;;;;;;;;5015181;28;20449;-68
2021/08/15 00:17:08;;;;;;;28.10;26.00;;;;;;;;;;5014828;28;20453;-68
2021/08/15 00:19:35;;;;;;;26.70;25.10;;;;;;;;;;5014670;28;20560;-69
2021/08/15 00:22:02;;;;;;;27.40;25.70;;;;;;;;;;5014803;28;20453;-68
2021/08/15 00:24:32;;;;;;;26.20;24.50;;;;;;;;;;5014240;28;20508;-68
2021/08/15 00:26:59;;;;;;;26.50;25.00;;;;;;;;;;5015092;28;20459;-67
2021/08/15 00:29:26;;;;;;;28.17;26.30;;;;;;;;;;5014569;28;20977;-66
2021/08/15 00:31:54;;;;;;;26.53;24.83;;;;;;;;;;5014213;28;20449;-68
2021/08/15 00:34:21;;;;;;;26.17;24.57;;;;;;;;;;5014430;28;20448;-69
2021/08/15 00:36:48;;;;;;;26.70;25.10;;;;;;;;;;5014824;28;20819;-68
2021/08/15 00:39:15;;;;;;;27.47;25.60;;;;;;;;;;5013709;28;20488;-69
2021/08/15 00:41:43;;;;;;;27.33;25.53;;;;;;;;;;5013997;28;20835;-68
2021/08/15 00:44:11;;;;;;;28.60;26.60;;;;;;;;;;5014647;28;20492;-68
2021/08/15 00:46:39;;;;;;;27.50;25.70;;;;;;;;;;5014324;28;20460;-69
2021/08/15 00:49:07;;;;;;;27.63;25.83;;;;;;;;;;5014265;28;20877;-69
2021/08/15 00:51:34;;;;;;;28.50;26.70;;;;;;;;;;5014328;28;20454;-68
2021/08/15 00:54:01;;;;;;;27.37;25.57;;;;;;;;;;5014624;28;20472;-68
2021/08/15 00:56:28;;;;;;;28.77;26.93;;;;;;;;;;5014125;28;20833;-68
2021/08/15 00:58:58;;;;;;;27.07;25.30;;;;;;;;;;5014125;28;20469;-68
2021/08/15 01:01:25;;;;;;;28.80;27.03;;;;;;;;;;5014699;28;20460;-68
2021/08/15 01:03:52;;;;;;;28.20;26.70;;;;;;;;;;5013836;28;21200;-68
2021/08/15 01:06:19;;;;;;;27.73;25.93;;;;;;;;;;5014318;28;20453;-68
2021/08/15 01:08:46;;;;;;;28.90;27.10;;;;;;;;;;5013633;28;20878;-69
2021/08/15 01:11:13;;;;;;;29.13;27.13;;;;;;;;;;5013242;28;20450;-68
2021/08/15 01:13:41;;;;;;;29.40;27.70;;;;;;;;;;5014172;28;20852;-67
2021/08/15 01:16:10;;;;;;;30.17;28.30;;;;;;;;;;5013804;28;20460;-68
2021/08/15 01:18:39;;;;;;;31.47;29.60;;;;;;;;;;5013536;28;20523;-68
2021/08/15 01:21:07;;;;;;;29.97;28.13;;;;;;;;;;5013633;28;20504;-68
2021/08/15 01:23:35;;;;;;;30.80;28.90;;;;;;;;;;5013817;28;20459;-68
2021/08/15 01:26:03;;;;;;;30.13;28.33;;;;;;;;;;5013540;28;20457;-68
2021/08/15 01:28:32;;;;;;;30.43;28.10;;;;;;;;;;5013263;28;20472;-68
2021/08/15 01:30:59;;;;;;;30.23;28.20;;;;;;;;;;5013462;28;20453;-68
2021/08/15 01:33:27;;;;;;;29.53;27.73;;;;;;;;;;5014005;28;20450;-68
2021/08/15 01:35:54;;;;;;;30.27;28.47;;;;;;;;;;5014313;28;20458;-69
2021/08/15 01:38:22;;;;;;;30.67;27.80;;;;;;;;;;5012889;28;20477;-68
2021/08/15 01:40:50;;;;;;;29.03;27.33;;;;;;;;;;5009933;28;20460;-68
2021/08/15 01:43:17;;;;;;;28.87;27.00;;;;;;;;;;5013698;28;20449;-67
2021/08/15 01:45:46;;;;;;;29.10;27.37;;;;;;;;;;5013358;28;21005;-68
2021/08/15 01:48:13;;;;;;;28.43;26.73;;;;;;;;;;5014301;28;20502;-68
2021/08/15 01:50:40;;;;;;;28.93;27.13;;;;;;;;;;5016045;28;20472;-68
2021/08/15 01:53:08;;;;;;;30.07;27.87;;;;;;;;;;5015112;28;21110;-69
2021/08/15 01:55:35;;;;;;;29.00;27.40;;;;;;;;;;5015778;28;20449;-68
2021/08/15 01:58:02;;;;;;;28.60;26.83;;;;;;;;;;5016372;28;20477;-68
2021/08/15 02:00:29;;;;;;;29.30;27.43;;;;;;;;;;5014768;28;20450;-68
2021/08/15 02:02:58;;;;;;;27.90;26.30;;;;;;;;;;5015034;28;20461;-69
2021/08/15 02:05:25;;;;;;;27.27;25.77;;;;;;;;;;5016082;28;20486;-69
2021/08/15 02:07:55;;;;;;;28.07;26.37;;;;;;;;;;5015290;28;20500;-69
2021/08/15 02:10:23;;;;;;;29.20;27.27;;;;;;;;;;5018402;28;20508;-69
2021/08/15 02:12:50;;;;;;;28.37;26.77;;;;;;;;;;5014841;28;20454;-69
2021/08/15 02:15:18;;;;;;;28.20;26.30;;;;;;;;;;5012820;28;20446;-69
2021/08/15 02:17:45;;;;;;;28.70;27.00;;;;;;;;;;5012669;28;20560;-68
2021/08/15 02:20:14;;;;;;;28.73;26.97;;;;;;;;;;5011810;28;20857;-69
2021/08/15 02:22:41;;;;;;;27.90;26.20;;;;;;;;;;5007896;28;20460;-68
2021/08/15 02:25:09;;;;;;;28.20;26.43;;;;;;;;;;5012246;28;21008;-68
2021/08/15 02:27:36;;;;;;;29.53;27.63;;;;;;;;;;5012747;28;20449;-69
2021/08/15 02:30:03;;;;;;;28.53;26.57;;;;;;;;;;5011864;28;20990;-68
2021/08/15 02:32:30;;;;;;;27.63;25.97;;;;;;;;;;5012898;28;20452;-68
2021/08/15 02:34:58;;;;;;;28.53;26.60;;;;;;;;;;5012043;28;20475;-68
2021/08/15 02:37:27;;;;;;;27.53;25.47;;;;;;;;;;5012513;28;20470;-68
2021/08/15 02:39:58;;;;;;;27.20;25.70;;;;;;;;;;5032182;22;21099;-62
2021/08/15 02:42:26;;;;;;;26.43;24.53;;;;;;;;;;4990606;28;20524;-62
2021/08/15 02:44:53;;;;;;;28.83;26.63;;;;;;;;;;4997912;28;20490;-63
2021/08/15 02:47:20;;;;;;;28.87;27.00;;;;;;;;;;5011707;28;20453;-63
2021/08/15 02:49:47;;;;;;;28.50;26.80;;;;;;;;;;5009404;28;20972;-62
2021/08/15 02:52:14;;;;;;;28.53;26.50;;;;;;;;;;5011862;28;20453;-63
2021/08/15 02:54:43;;;;;;;27.80;26.20;;;;;;;;;;5010187;28;20461;-63
2021/08/15 02:57:10;;;;;;;28.20;26.40;;;;;;;;;;5005969;28;20983;-63
2021/08/15 02:59:40;;;;;;;28.13;26.43;;;;;;;;;;4992754;28;20461;-63
2021/08/15 03:02:07;;;;;;;28.63;26.93;;;;;;;;;;4992259;28;20454;-63
2021/08/15 03:04:34;;;;;;;28.30;26.50;;;;;;;;;;4993773;28;20482;-63
2021/08/15 03:07:02;;;;;;;27.27;25.77;;;;;;;;;;4991794;28;20451;-62
2021/08/15 03:09:29;;;;;;;28.70;26.90;;;;;;;;;;4996261;28;20458;-62
2021/08/15 03:11:57;;;;;;;27.00;25.47;;;;;;;;;;5010712;28;20457;-62
2021/08/15 03:14:25;;;;;;;27.80;26.10;;;;;;;;;;4979058;28;20468;-62
2021/08/15 03:16:52;;;;;;;27.70;26.00;;;;;;;;;;5003986;28;20462;-62
2021/08/15 03:19:19;;;;;;;29.03;26.97;;;;;;;;;;4994176;28;20446;-63
2021/08/15 03:21:46;;;;;;;27.70;25.93;;;;;;;;;;5013194;28;20845;-63
2021/08/15 03:24:14;;;;;;;27.80;26.20;;;;;;;;;;4999900;28;20458;-62
2021/08/15 03:26:43;;;;;;;29.27;26.90;;;;;;;;;;4999087;28;20469;-62
2021/08/15 03:29:12;;;;;;;27.93;26.17;;;;;;;;;;4996339;28;20454;-63
2021/08/15 03:31:39;;;;;;;28.20;26.50;;;;;;;;;;5014380;28;20568;-62
2021/08/15 03:34:06;;;;;;;27.33;25.40;;;;;;;;;;5015491;28;20445;-62
2021/08/15 03:36:34;;;;;;;27.13;25.53;;;;;;;;;;4997354;28;20467;-62
2021/08/15 03:39:01;;;;;;;26.83;25.23;;;;;;;;;;4997383;28;20454;-62
2021/08/15 03:41:28;;;;;;;26.63;24.83;;;;;;;;;;4995231;28;20482;-62
2021/08/15 03:43:55;;;;;;;26.80;25.20;;;;;;;;;;4995517;28;20454;-62
2021/08/15 03:46:24;;;;;;;27.13;25.53;;;;;;;;;;5006900;28;20481;-62
2021/08/15 03:48:51;;;;;;;26.90;25.40;;;;;;;;;;5012327;28;20460;-62
2021/08/15 03:51:18;;;;;;;26.40;24.80;;;;;;;;;;5015402;28;20476;-65
2021/08/15 03:53:45;;;;;;;27.80;26.10;;;;;;;;;;5013867;28;20441;-62
2021/08/15 03:56:12;;;;;;;26.83;25.27;;;;;;;;;;5005147;28;20450;-62
2021/08/15 03:58:39;;;;;;;27.13;25.63;;;;;;;;;;5014589;28;20449;-62
2021/08/15 04:01:07;;;;;;;26.90;25.20;;;;;;;;;;4995779;28;20479;-62
2021/08/15 04:03:35;;;;;;;27.50;25.70;;;;;;;;;;4995140;28;20942;-62
2021/08/15 04:06:07;;;;;;;27.13;25.47;;;;;;;;;;4995347;28;20478;-62
2021/08/15 04:08:34;;;;;;;26.80;25.20;;;;;;;;;;4995302;28;20518;-62
2021/08/15 04:11:02;;;;;;;27.70;26.00;;;;;;;;;;5011349;28;20476;-62
2021/08/15 04:13:29;;;;;;;27.03;25.23;;;;;;;;;;5005309;28;20481;-62
2021/08/15 04:15:56;;;;;;;28.37;26.27;;;;;;;;;;5007481;28;20457;-62
2021/08/15 04:18:23;;;;;;;29.03;27.07;;;;;;;;;;5014712;28;20449;-62
2021/08/15 04:20:51;;;;;;;27.37;25.67;;;;;;;;;;4995677;28;20477;-62
2021/08/15 04:23:18;;;;;;;26.77;25.10;;;;;;;;;;4995126;28;20941;-62
2021/08/15 04:25:46;;;;;;;27.63;25.63;;;;;;;;;;4995883;28;20496;-62
2021/08/15 04:28:13;;;;;;;29.00;26.83;;;;;;;;;;4994527;28;20453;-63
2021/08/15 04:30:40;;;;;;;29.43;27.20;;;;;;;;;;4994788;28;20993;-62
2021/08/15 04:33:07;;;;;;;28.07;26.07;;;;;;;;;;4999647;28;20457;-62
2021/08/15 04:35:34;;;;;;;29.53;27.33;;;;;;;;;;5013025;28;20830;-62
2021/08/15 04:38:03;;;;;;;28.63;26.83;;;;;;;;;;4997531;28;20466;-62
2021/08/15 04:40:30;;;;;;;28.30;26.53;;;;;;;;;;5011668;28;20489;-62
2021/08/15 04:42:57;;;;;;;28.33;26.17;;;;;;;;;;5015083;28;20449;-62
2021/08/15 04:45:24;;;;;;;26.60;25.00;;;;;;;;;;4998828;28;20483;-62
2021/08/15 04:47:51;;;;;;;28.80;26.60;;;;;;;;;;4995512;28;20472;-62
2021/08/15 04:50:18;;;;;;;28.97;27.07;;;;;;;;;;4994634;28;20474;-62
2021/08/15 04:52:46;;;;;;;28.50;26.50;;;;;;;;;;4996060;28;20454;-62
2021/08/15 04:55:14;;;;;;;28.93;27.03;;;;;;;;;;4997564;28;20465;-62
2021/08/15 04:57:41;;;;;;;27.67;25.57;;;;;;;;;;4995096;28;20462;-62
2021/08/15 05:00:09;;;;;;;29.53;27.53;;;;;;;;;;4994706;28;20479;-62
2021/08/15 05:02:36;;;;;;;29.33;27.07;;;;;;;;;;4994703;28;20450;-62
2021/08/15 05:05:03;;;;;;;29.10;27.33;;;;;;;;;;5004245;28;20485;-62
2021/08/15 05:07:30;;;;;;;30.27;28.20;;;;;;;;;;4995780;28;20455;-62
2021/08/15 05:09:58;;;;;;;28.67;26.80;;;;;;;;;;4997372;28;20475;-61
2021/08/15 05:12:26;;;;;;;29.43;27.37;;;;;;;;;;4996215;28;20825;-61
2021/08/15 05:14:53;;;;;;;29.50;27.50;;;;;;;;;;4984150;28;20457;-61
2021/08/15 05:17:20;;;;;;;31.60;29.40;;;;;;;;;;4995934;28;20454;-62
2021/08/15 05:19:47;;;;;;;32.07;30.00;;;;;;;;;;4997630;28;20461;-61
2021/08/15 05:22:14;;;;;;;32.00;30.00;;;;;;;;;;4997017;28;20984;-64
2021/08/15 05:24:42;;;;;;;31.07;28.83;;;;;;;;;;5010564;28;20450;-61
2021/08/15 05:27:09;;;;;;;30.40;28.40;;;;;;;;;;4994056;28;20445;-61
2021/08/15 05:29:37;;;;;;;30.53;28.63;;;;;;;;;;4998849;28;20464;-61
2021/08/15 05:32:05;;;;;;;31.47;29.57;;;;;;;;;;5013563;28;20481;-63
2021/08/15 05:34:32;;;;;;;30.90;29.00;;;;;;;;;;5011742;28;20449;-61
2021/08/15 05:36:59;;;;;;;31.13;29.33;;;;;;;;;;5013671;28;20453;-61
2021/08/15 05:39:26;;;;;;;33.53;31.53;;;;;;;;;;5013037;28;20450;-60
2021/08/15 05:41:53;;;;;;;33.33;31.30;;;;;;;;;;5010702;28;20503;-61
2021/08/15 05:44:20;;;;;;;33.13;31.17;;;;;;;;;;4999677;28;20457;-61
2021/08/15 05:46:49;;;;;;;31.73;29.73;;;;;;;;;;5012925;28;20487;-62
2021/08/15 05:49:16;;;;;;;31.93;29.83;;;;;;;;;;5008990;28;20453;-61
2021/08/15 05:51:43;;;;;;;32.37;30.47;;;;;;;;;;5012347;28;20839;-64
2021/08/15 05:54:10;;;;;;;31.03;29.13;;;;;;;;;;4998196;28;20462;-61
2021/08/15 05:56:37;;;;;;;32.23;30.43;;;;;;;;;;5012717;28;20449;-63
2021/08/15 05:59:04;;;;;;;31.73;29.90;;;;;;;;;;5011168;28;20461;-61
2021/08/15 06:01:33;;;;;;;31.80;30.00;;;;;;;;;;4994710;28;20474;-63
2021/08/15 06:04:02;;;;;;;31.90;29.83;;;;;;;;;;4993131;28;20469;-61
2021/08/15 06:06:29;;;;;;;30.00;28.13;;;;;;;;;;5011912;28;21023;-64
2021/08/15 06:08:56;;;;;;;30.00;28.10;;;;;;;;;;5009453;28;20465;-61
2021/08/15 06:11:23;;;;;;;29.67;27.90;;;;;;;;;;5008377;28;20482;-65
2021/08/15 06:13:51;;;;;;;30.40;28.60;;;;;;;;;;5012668;28;20483;-62
2021/08/15 06:16:19;;;;;;;31.60;29.37;;;;;;;;;;5011168;28;20456;-62
2021/08/15 06:18:46;;;;;;;29.90;28.20;;;;;;;;;;4993866;28;20486;-63
2021/08/15 06:21:14;;;;;;;31.73;29.13;;;;;;;;;;4992754;28;20474;-62
2021/08/15 06:23:41;;;;;;;32.17;29.53;;;;;;;;;;5010154;28;20458;-62
2021/08/15 06:26:08;;;;;;;30.83;28.83;;;;;;;;;;4998453;28;20487;-62
2021/08/15 06:28:35;;;;;;;30.77;28.80;;;;;;;;;;4994197;28;20482;-62
2021/08/15 06:31:03;;;;;;;30.77;28.53;;;;;;;;;;5003585;28;20500;-62
2021/08/15 06:33:30;;;;;;;30.67;28.80;;;;;;;;;;5012332;28;20453;-62
2021/08/15 06:35:57;;;;;;;30.77;28.87;;;;;;;;;;4999966;28;20945;-62
2021/08/15 06:38:25;;;;;;;31.03;29.23;;;;;;;;;;5006301;28;20450;-62
2021/08/15 06:40:53;;;;;;;31.17;28.97;;;;;;;;;;5009850;28;20507;-62
2021/08/15 06:43:21;;;;;;;30.00;28.10;;;;;;;;;;5012126;28;20945;-62
2021/08/15 06:45:48;;;;;;;30.07;28.10;;;;;;;;;;5011597;28;20481;-62
2021/08/15 06:48:15;;;;;;;29.93;27.73;;;;;;;;;;5011941;28;20449;-62
2021/08/15 06:50:42;;;;;;;30.53;28.33;;;;;;;;;;5010874;28;20476;-62
2021/08/15 06:53:09;;;;;;;31.57;28.13;;;;;;;;;;5004826;28;20456;-62
2021/08/15 06:55:38;;;;;;;29.07;27.30;;;;;;;;;;5010671;28;20460;-62
2021/08/15 06:58:05;;;;;;;30.40;28.40;;;;;;;;;;5012317;28;20449;-62
2021/08/15 07:00:32;;;;;;;32.57;29.80;;;;;;;;;;5009429;28;20483;-62
2021/08/15 07:03:00;;;;;;;30.07;27.40;;;;;;;;;;5010780;28;20475;-62
2021/08/15 07:05:27;;;;;;;29.87;27.87;;;;;;;;;;5011163;28;21039;-62
2021/08/15 07:07:54;;;;;;;29.23;27.53;;;;;;;;;;4998983;28;20807;-62
2021/08/15 07:10:21;;;;;;;30.17;28.10;;;;;;;;;;5003592;28;20473;-62
2021/08/15 07:12:53;;;;;;;28.97;26.97;;;;;;;;;;5011823;28;20454;-62
2021/08/15 07:15:20;;;;;;;29.00;26.90;;;;;;;;;;5007990;28;20951;-62
2021/08/15 07:17:48;;;;;;;29.70;27.60;;;;;;;;;;5011681;28;20449;-62
2021/08/15 07:20:15;;;;;;;29.60;27.23;;;;;;;;;;5009451;28;20488;-63
2021/08/15 07:22:43;;;;;;;29.20;27.10;;;;;;;;;;5010686;28;20446;-63
2021/08/15 07:25:10;;;;;;;28.27;26.50;;;;;;;;;;4998126;28;20460;-63
2021/08/15 07:27:38;;;;;;;28.87;26.87;;;;;;;;;;4999777;28;21001;-66
2021/08/15 07:30:07;;;;;;;27.40;25.47;;;;;;;;;;4998408;28;20474;-66
2021/08/15 07:32:34;;;;;;;27.00;25.20;;;;;;;;;;5011890;28;20862;-66
2021/08/15 07:35:02;;;;;;;26.30;24.60;;;;;;;;;;5010571;28;20453;-66
2021/08/15 07:37:29;;;;;;;26.33;24.63;;;;;;;;;;5007129;28;20462;-66
2021/08/15 07:39:56;;;;;;;26.60;25.10;;;;;;;;;;5001862;28;20988;-66
2021/08/15 07:42:23;;;;;;;26.73;25.23;;;;;;;;;;5009633;28;20446;-66
2021/08/15 07:44:50;;;;;;;27.40;25.40;;;;;;;;;;5003910;28;20803;-66
2021/08/15 07:47:19;;;;;;;26.03;24.53;;;;;;;;;;4991769;28;20488;-65
2021/08/15 07:49:46;;;;;;;26.93;25.03;;;;;;;;;;5009844;28;20450;-65
2021/08/15 07:52:13;;;;;;;26.00;24.60;;;;;;;;;;4993687;28;20452;-66
2021/08/15 07:54:40;;;;;;;26.30;24.70;;;;;;;;;;5000678;28;20462;-65
2021/08/15 07:57:07;;;;;;;25.90;24.40;;;;;;;;;;5011217;28;20454;-65
2021/08/15 07:59:34;;;;;;;26.33;24.80;;;;;;;;;;4995667;28;20463;-65
2021/08/15 08:02:01;;;;;;;26.47;24.97;;;;;;;;;;4991274;28;20544;-65
2021/08/15 08:04:30;;;;;;;26.40;24.90;;;;;;;;;;4991625;28;20500;-65
2021/08/15 08:07:02;;;;;;;26.70;25.00;;;;;;;;;;4994333;28;20486;-66
2021/08/15 08:09:29;;;;;;;26.67;25.07;;;;;;;;;;4998229;28;20461;-66
2021/08/15 08:11:56;;;;;;;26.13;24.63;;;;;;;;;;4997279;28;21013;-66
2021/08/15 08:14:23;;;;;;;25.70;24.30;;;;;;;;;;4995503;28;20458;-65
2021/08/15 08:16:52;;;;;;;26.77;25.27;;;;;;;;;;5008849;28;20452;-65
2021/08/15 08:19:19;;;;;;;26.27;24.87;;;;;;;;;;5003856;28;20511;-64
2021/08/15 08:21:47;;;;;;;26.80;25.30;;;;;;;;;;5001006;28;20498;-62
2021/08/15 08:24:14;;;;;;;25.13;23.83;;;;;;;;;;4994822;28;20910;-62
2021/08/15 08:26:42;;;;;;;25.70;24.30;;;;;;;;;;4994992;28;20493;-61
2021/08/15 08:29:09;;;;;;;25.00;23.70;;;;;;;;;;4993152;28;20485;-62
2021/08/15 08:31:36;;;;;;;25.73;24.07;;;;;;;;;;4994242;28;20474;-61
2021/08/15 08:34:03;;;;;;;24.83;23.53;;;;;;;;;;5005950;28;20825;-64
2021/08/15 08:36:30;;;;;;;26.00;24.60;;;;;;;;;;4994962;28;20453;-62
2021/08/15 08:38:59;;;;;;;26.50;24.90;;;;;;;;;;4996708;28;20461;-64
2021/08/15 08:41:26;;;;;;;27.53;25.43;;;;;;;;;;4995243;28;21001;-64
2021/08/15 08:43:53;;;;;;;25.97;24.27;;;;;;;;;;4995049;28;20463;-63
2021/08/15 08:46:20;;;;;;;26.50;25.00;;;;;;;;;;4994823;28;20486;-61
2021/08/15 08:48:47;;;;;;;26.13;24.53;;;;;;;;;;5031617;22;20968;-68
2021/08/15 08:51:14;;;;;;;25.33;23.87;;;;;;;;;;5021836;28;20473;-69
2021/08/15 08:53:42;;;;;;;27.03;25.40;;;;;;;;;;5031618;28;20451;-67
2021/08/15 08:56:10;;;;;;;25.53;24.03;;;;;;;;;;5015702;28;20468;-67
2021/08/15 08:58:37;;;;;;;25.73;24.23;;;;;;;;;;5012164;28;20474;-66
2021/08/15 09:01:04;;;;;;;27.37;25.60;;;;;;;;;;4982441;28;20455;-66
2021/08/15 09:03:31;;;;;;;29.40;27.40;;;;;;;;;;4999084;28;20443;-69
2021/08/15 09:05:58;;;;;;;31.37;28.00;;;;;;;;;;4998650;28;20451;-65
2021/08/15 09:08:27;;;;;;;29.10;27.30;;;;;;;;;;4996170;28;20459;-66
2021/08/15 09:10:54;;;;;;;30.40;28.50;;;;;;;;;;4996084;28;20455;-68
2021/08/15 09:13:28;;;;;;;32.40;29.70;;;;;;;;;;4996051;28;20457;-70
2021/08/15 09:15:56;;;;;;;34.07;30.57;;;;;;;;;;4995131;28;20463;-68
2021/08/15 09:18:29;;;;;;;32.20;29.90;;;;;;;;;;5005153;28;20457;-68
2021/08/15 09:20:56;;;;;;;30.80;28.10;;;;;;;;;;4998864;28;20478;-68
2021/08/15 09:23:25;;;;;;;33.07;30.10;;;;;;;;;;4994522;28;20461;-68
2021/08/15 09:26:11;;;;;;;33.00;30.20;;;;;;;;;;4998333;28;20463;-68
2021/08/15 09:28:40;;;;;;;34.10;31.70;;;;;;;;;;4994354;28;20477;-68
2021/08/15 09:31:32;;;;;;;37.90;35.40;;;;;;;;;;5003280;28;20450;-69
2021/08/15 09:34:00;;;;;;;36.30;33.90;;;;;;;;;;4990152;28;20698;-68
2021/08/15 09:36:28;;;;;;;41.37;38.60;;;;;;;;;;4994497;28;20794;-68
2021/08/15 09:38:57;;;;;;;41.07;38.47;;;;;;;;;;5005211;28;20474;-68
2021/08/15 09:41:24;;;;;;;35.30;32.80;;;;;;;;;;5007741;28;20828;-68
2021/08/15 09:44:13;;;;;;;38.07;35.57;;;;;;;;;;4998328;28;20453;-68
2021/08/15 09:46:55;;;;;;;35.57;33.37;;;;;;;;;;4994332;28;21031;-68
2021/08/15 09:49:23;;;;;;;36.90;34.60;;;;;;;;;;5001660;28;20489;-68
2021/08/15 09:51:50;;;;;;;37.87;35.37;;;;;;;;;;4995495;28;20454;-68
2021/08/15 09:54:17;;;;;;;33.40;31.20;;;;;;;;;;4997069;28;20451;-68
2021/08/15 09:56:45;;;;;;;35.63;33.23;;;;;;;;;;5003910;28;20499;-68
2021/08/15 09:59:13;;;;;;;33.77;31.60;;;;;;;;;;5002373;28;20478;-68
2021/08/15 10:01:41;;;;;;;37.50;34.90;;;;;;;;;;4993935;28;20537;-68
2021/08/15 10:04:09;;;;;;;31.10;29.20;;;;;;;;;;4994555;28;20443;-68
2021/08/15 10:06:38;;;;;;;31.50;29.60;;;;;;;;;;4994914;28;20487;-68
2021/08/15 10:09:05;;;;;;;39.60;36.83;;;;;;;;;;4994451;28;21009;-68
2021/08/15 10:11:33;;;;;;;34.63;32.27;;;;;;;;;;4993929;28;20750;-68
2021/08/15 10:14:00;;;;;;;34.50;32.20;;;;;;;;;;4994535;28;20476;-68
2021/08/15 10:16:29;;;;;;;33.87;31.87;;;;;;;;;;4994975;28;20465;-68
2021/08/15 10:18:57;;;;;;;34.63;32.33;;;;;;;;;;4994696;28;20481;-68
2021/08/15 10:21:24;;;;;;;34.40;32.30;;;;;;;;;;4994180;28;20447;-68
2021/08/15 10:23:53;;;;;;;31.37;29.47;;;;;;;;;;4992688;28;20450;-68
2021/08/15 10:26:39;;;;;;;32.67;30.67;;;;;;;;;;4993950;28;20958;-68
2021/08/15 10:29:27;;;;;;;35.70;33.40;;;;;;;;;;4994208;28;20485;-68
2021/08/15 10:32:24;;;;;;;31.73;29.70;;;;;;;;;;4989881;28;20838;-68
2021/08/15 10:35:15;;;;;;;33.10;31.00;;;;;;;;;;5002808;28;20454;-67
2021/08/15 10:37:43;;;;;;;32.70;30.50;;;;;;;;;;4974065;28;20861;-68
2021/08/15 10:40:36;;;;;;;30.53;28.60;;;;;;;;;;4991908;28;20531;-68
2021/08/15 10:43:05;;;;;;;31.27;29.30;;;;;;;;;;5011984;28;20458;-67
2021/08/15 10:45:32;;;;;;;32.13;30.03;;;;;;;;;;5012823;28;20573;-68
2021/08/15 10:48:23;;;;;;;33.70;31.10;;;;;;;;;;5008201;28;20482;-68
2021/08/15 10:50:51;;;;;;;31.03;29.13;;;;;;;;;;4992886;28;20813;-68
2021/08/15 10:53:33;;;;;;;31.20;29.00;;;;;;;;;;4994024;28;20454;-68
2021/08/15 10:56:02;;;;;;;32.27;30.03;;;;;;;;;;5001115;28;20453;-68
2021/08/15 10:58:37;;;;;;;32.77;30.60;;;;;;;;;;4998825;28;20537;-68
2021/08/15 11:01:04;;;;;;;31.73;29.60;;;;;;;;;;4996005;28;20476;-68
2021/08/15 11:03:36;;;;;;;33.60;31.40;;;;;;;;;;4993615;28;20459;-69
2021/08/15 11:06:04;;;;;;;31.27;29.10;;;;;;;;;;4972693;28;20461;-68
2021/08/15 11:08:50;;;;;;;31.90;29.90;;;;;;;;;;4991734;28;20490;-68
2021/08/15 11:11:23;;;;;;;32.77;30.37;;;;;;;;;;4992462;28;20454;-68
2021/08/15 11:14:11;;;;;;;30.37;28.67;;;;;;;;;;5011600;28;20905;-69
2021/08/15 11:16:48;;;;;;;32.90;30.57;;;;;;;;;;5009908;28;20469;-69
2021/08/15 11:19:31;;;;;;;28.97;27.07;;;;;;;;;;5000892;28;20474;-68
2021/08/15 11:22:05;;;;;;;33.03;30.50;;;;;;;;;;5009319;28;20465;-68
2021/08/15 11:24:33;;;;;;;34.27;31.87;;;;;;;;;;5011994;28;20806;-68
2021/08/15 11:27:00;;;;;;;30.90;28.77;;;;;;;;;;4993670;28;20486;-69
2021/08/15 11:29:29;;;;;;;31.93;29.63;;;;;;;;;;4991536;28;20472;-70
2021/08/15 11:31:57;;;;;;;29.80;27.80;;;;;;;;;;4995247;28;21170;-68
2021/08/15 11:34:25;;;;;;;29.60;27.60;;;;;;;;;;4991980;28;20466;-68
2021/08/15 11:36:56;;;;;;;29.33;27.33;;;;;;;;;;4991870;28;20458;-68
2021/08/15 11:39:29;;;;;;;29.50;27.40;;;;;;;;;;4990871;28;20494;-67
2021/08/15 11:41:56;;;;;;;28.97;27.07;;;;;;;;;;4991649;28;20801;-67
2021/08/15 11:44:23;;;;;;;30.00;27.80;;;;;;;;;;4996984;28;20458;-67
2021/08/15 11:46:52;;;;;;;31.40;29.13;;;;;;;;;;4996674;28;20456;-67
2021/08/15 11:49:31;;;;;;;31.63;29.43;;;;;;;;;;4996695;28;20981;-66
2021/08/15 11:52:12;;;;;;;29.00;27.10;;;;;;;;;;4995300;28;20983;-67
2021/08/15 11:54:40;;;;;;;30.63;28.53;;;;;;;;;;4996555;28;20450;-67
2021/08/15 11:57:10;;;;;;;30.87;28.40;;;;;;;;;;4993338;28;20566;-67
2021/08/15 11:59:38;;;;;;;30.57;28.67;;;;;;;;;;4996442;28;20512;-67
2021/08/15 12:02:07;;;;;;;31.07;28.97;;;;;;;;;;4995263;28;20881;-67
2021/08/15 12:04:34;;;;;;;29.53;27.63;;;;;;;;;;4996938;28;20944;-67
2021/08/15 12:07:01;;;;;;;32.10;29.90;;;;;;;;;;4997061;28;20472;-67
2021/08/15 12:09:30;;;;;;;30.30;28.30;;;;;;;;;;4996034;28;20482;-68
2021/08/15 12:11:58;;;;;;;29.57;27.67;;;;;;;;;;4996621;28;20458;-68
2021/08/15 12:14:33;;;;;;;29.70;27.70;;;;;;;;;;4996391;28;20460;-67
2021/08/15 12:17:00;;;;;;;31.07;28.97;;;;;;;;;;4996185;28;20442;-68
2021/08/15 12:19:30;;;;;;;30.33;28.13;;;;;;;;;;4996437;28;20490;-69
2021/08/15 12:21:57;;;;;;;30.20;27.80;;;;;;;;;;4997450;28;20458;-67
2021/08/15 12:24:25;;;;;;;29.93;27.90;;;;;;;;;;4997829;28;20450;-68
2021/08/15 12:26:57;;;;;;;30.57;28.57;;;;;;;;;;4996188;28;20474;-67
2021/08/15 12:29:25;;;;;;;32.57;30.17;;;;;;;;;;4996868;28;20474;-67
2021/08/15 12:32:02;;;;;;;30.40;28.30;;;;;;;;;;4995844;28;20462;-68
2021/08/15 12:34:31;;;;;;;31.00;28.80;;;;;;;;;;4994178;28;20468;-69
2021/08/15 12:36:59;;;;;;;29.53;27.63;;;;;;;;;;4995587;28;20465;-67
2021/08/15 12:39:31;;;;;;;31.80;29.60;;;;;;;;;;4995066;28;20574;-67
2021/08/15 12:41:59;;;;;;;29.50;27.60;;;;;;;;;;5005749;28;20478;-67
2021/08/15 12:44:27;;;;;;;29.77;27.73;;;;;;;;;;4995354;28;20457;-67
2021/08/15 12:46:58;;;;;;;29.93;28.00;;;;;;;;;;4995747;28;20450;-68
2021/08/15 12:49:26;;;;;;;29.03;26.70;;;;;;;;;;4995441;28;20482;-67
2021/08/15 12:52:09;;;;;;;29.43;27.33;;;;;;;;;;4995121;28;20461;-68
2021/08/15 12:54:36;;;;;;;28.90;27.10;;;;;;;;;;4993017;28;20455;-67
2021/08/15 12:57:04;;;;;;;30.03;27.93;;;;;;;;;;4995526;28;20458;-67
2021/08/15 12:59:31;;;;;;;29.80;27.80;;;;;;;;;;4995490;28;20496;-67
2021/08/15 13:01:58;;;;;;;29.00;27.10;;;;;;;;;;4996610;28;20451;-67
2021/08/15 13:04:25;;;;;;;28.23;26.30;;;;;;;;;;4996378;28;20828;-67
2021/08/15 13:06:54;;;;;;;28.60;26.60;;;;;;;;;;5000708;28;20458;-67
2021/08/15 13:09:22;;;;;;;28.53;26.73;;;;;;;;;;4994064;28;20561;-67
2021/08/15 13:11:50;;;;;;;28.30;26.70;;;;;;;;;;4995285;28;20467;-67
2021/08/15 13:14:17;;;;;;;28.53;26.53;;;;;;;;;;4995629;28;20949;-67
2021/08/15 13:16:44;;;;;;;29.03;27.03;;;;;;;;;;4993118;28;20467;-67
2021/08/15 13:19:11;;;;;;;28.20;26.30;;;;;;;;;;4994487;28;21009;-67
2021/08/15 13:21:38;;;;;;;27.67;25.97;;;;;;;;;;4994245;28;20459;-67
2021/08/15 13:24:06;;;;;;;29.73;27.90;;;;;;;;;;4995567;28;20458;-67
2021/08/15 13:26:34;;;;;;;29.00;26.90;;;;;;;;;;4994381;28;20480;-67
2021/08/15 13:29:01;;;;;;;27.00;25.20;;;;;;;;;;4993361;28;20498;-67
2021/08/15 13:31:28;;;;;;;27.80;25.90;;;;;;;;;;4993344;28;20458;-67
2021/08/15 13:33:55;;;;;;;26.27;24.47;;;;;;;;;;4991775;28;20494;-67
2021/08/15 13:36:22;;;;;;;25.70;24.10;;;;;;;;;;4993281;28;20477;-67
2021/08/15 13:38:49;;;;;;;26.13;24.47;;;;;;;;;;4993938;28;21016;-67
2021/08/15 13:41:17;;;;;;;26.63;24.90;;;;;;;;;;4992580;28;20478;-67
2021/08/15 13:43:45;;;;;;;25.83;24.33;;;;;;;;;;4992346;28;20769;-67
2021/08/15 13:46:12;;;;;;;25.27;23.67;;;;;;;;;;4992111;28;20836;-67
2021/08/15 13:48:39;;;;;;;25.87;24.27;;;;;;;;;;4992118;28;20514;-67
2021/08/15 13:51:06;;;;;;;26.80;24.90;;;;;;;;;;4993545;28;20439;-67
2021/08/15 13:53:34;;;;;;;25.90;24.13;;;;;;;;;;4992475;28;20958;-67
2021/08/15 13:56:01;;;;;;;24.80;23.10;;;;;;;;;;4992821;28;20465;-67
2021/08/15 13:58:30;;;;;;;26.90;25.20;;;;;;;;;;4992293;28;20466;-68
2021/08/15 14:00:58;;;;;;;24.67;23.17;;;;;;;;;;4993104;28;20470;-67
2021/08/15 14:03:25;;;;;;;25.40;23.70;;;;;;;;;;4993039;28;20769;-67
2021/08/15 14:05:53;;;;;;;24.40;22.77;;;;;;;;;;4992106;28;20481;-67
2021/08/15 14:08:20;;;;;;;23.67;22.27;;;;;;;;;;4990208;28;20513;-67
2021/08/15 14:10:47;;;;;;;25.57;24.03;;;;;;;;;;4993415;28;20446;-67
2021/08/15 14:13:14;;;;;;;26.10;24.17;;;;;;;;;;4992225;28;20477;-67
2021/08/15 14:15:41;;;;;;;26.20;24.63;;;;;;;;;;4992659;28;20821;-67
2021/08/15 14:18:10;;;;;;;25.10;23.50;;;;;;;;;;4992390;28;20470;-67
2021/08/15 14:20:37;;;;;;;25.10;23.50;;;;;;;;;;4991825;28;20486;-67
2021/08/15 14:23:05;;;;;;;25.23;23.47;;;;;;;;;;4992804;28;20941;-67
2021/08/15 14:25:32;;;;;;;25.17;23.57;;;;;;;;;;4992360;28;21854;-68